Time;durP1;ratioP1;P1;durP2;ratioP2;P2;SDS_P1;SDS_P2;PMS_P1;PMS_P2;Temp;Humidity;BMP_temperature;BMP_pressure;BME280_temperature;BME280_humidity;BME280_pressure;Samples;Min_cycle;Max_cycle;Signal;HPM_P1;HPM_P2
2021/03/01 00:02:15;;;;;;;3;2.1;;;;;;;;;;;;;
2021/03/01 00:04:43;;;;;;;4.7;2.6;;;;;;;;;;;;;
2021/03/01 00:07:09;;;;;;;2.6;2.1;;;;;;;;;;;;;
2021/03/01 00:09:36;;;;;;;3;2.2;;;;;;;;;;;;;
2021/03/01 00:12:01;;;;;;;1.9;1.8;;;;;;;;;;;;;
2021/03/01 00:14:28;;;;;;;3.3;1.9;;;;;;;;;;;;;
2021/03/01 00:16:53;;;;;;;2.7;1.8;;;;;;;;;;;;;
2021/03/01 00:19:19;;;;;;;1.3;1.2;;;;;;;;;;;;;
2021/03/01 00:21:44;;;;;;;2.4;1.8;;;;;;;;;;;;;
2021/03/01 00:24:10;;;;;;;2.2;1.7;;;;;;;;;;;;;
2021/03/01 00:26:36;;;;;;;1.8;1.4;;;;;;;;;;;;;
2021/03/01 00:29:02;;;;;;;3.6;1.7;;;;;;;;;;;;;
2021/03/01 00:31:27;;;;;;;1.5;1.4;;;;;;;;;;;;;
2021/03/01 00:33:53;;;;;;;1.7;1.4;;;;;;;;;;;;;
2021/03/01 00:36:18;;;;;;;4.5;2;;;;;;;;;;;;;
2021/03/01 00:38:43;;;;;;;1.4;1.3;;;;;;;;;;;;;
2021/03/01 00:41:09;;;;;;;3.2;2.3;;;;;;;;;;;;;
2021/03/01 00:43:34;;;;;;;2.2;1.6;;;;;;;;;;;;;
2021/03/01 00:45:59;;;;;;;4;1.9;;;;;;;;;;;;;
2021/03/01 00:48:26;;;;;;;4.2;1.3;;;;;;;;;;;;;
2021/03/01 00:50:51;;;;;;;2.3;1.4;;;;;;;;;;;;;
2021/03/01 00:53:17;;;;;;;2.4;1.2;;;;;;;;;;;;;
2021/03/01 00:55:42;;;;;;;2.1;1.7;;;;;;;;;;;;;
2021/03/01 00:58:09;;;;;;;1.5;1.3;;;;;;;;;;;;;
2021/03/01 01:00:34;;;;;;;1.8;1.4;;;;;;;;;;;;;
2021/03/01 01:03:00;;;;;;;1.8;1.3;;;;;;;;;;;;;
2021/03/01 01:05:26;;;;;;;3.9;2;;;;;;;;;;;;;
2021/03/01 01:07:52;;;;;;;1.7;1.5;;;;;;;;;;;;;
2021/03/01 01:10:17;;;;;;;2.6;1.5;;;;;;;;;;;;;
2021/03/01 01:12:43;;;;;;;2.3;1.4;;;;;;;;;;;;;
2021/03/01 01:15:08;;;;;;;2.3;1.6;;;;;;;;;;;;;
2021/03/01 01:17:35;;;;;;;2.7;1.2;;;;;;;;;;;;;
2021/03/01 01:20:00;;;;;;;3.5;1.1;;;;;;;;;;;;;
2021/03/01 01:22:26;;;;;;;2.2;1.5;;;;;;;;;;;;;
2021/03/01 01:24:52;;;;;;;1.3;1;;;;;;;;;;;;;
2021/03/01 01:27:17;;;;;;;1.4;1.1;;;;;;;;;;;;;
2021/03/01 01:29:42;;;;;;;1.9;1.4;;;;;;;;;;;;;
2021/03/01 01:32:10;;;;;;;1.6;1.5;;;;;;;;;;;;;
2021/03/01 01:34:35;;;;;;;2.5;1.8;;;;;;;;;;;;;
2021/03/01 01:37:01;;;;;;;1.2;1.1;;;;;;;;;;;;;
2021/03/01 01:39:26;;;;;;;1.6;1.1;;;;;;;;;;;;;
2021/03/01 01:41:52;;;;;;;3.9;1.3;;;;;;;;;;;;;
2021/03/01 01:44:17;;;;;;;1.4;1;;;;;;;;;;;;;
2021/03/01 01:46:43;;;;;;;1.3;1.1;;;;;;;;;;;;;
2021/03/01 01:49:08;;;;;;;2.3;1.6;;;;;;;;;;;;;
2021/03/01 01:51:33;;;;;;;1.4;1.2;;;;;;;;;;;;;
2021/03/01 01:53:58;;;;;;;1.2;1.1;;;;;;;;;;;;;
2021/03/01 01:56:25;;;;;;;2.8;1.6;;;;;;;;;;;;;
2021/03/01 01:58:50;;;;;;;1.8;1.4;;;;;;;;;;;;;
2021/03/01 02:01:20;;;;;;;2.3;1.4;;;;;;;;;;;;;
2021/03/01 02:03:44;;;;;;;1.5;1.1;;;;;;;;;;;;;
2021/03/01 02:06:11;;;;;;;1.3;1.1;;;;;;;;;;;;;
2021/03/01 02:08:38;;;;;;;1.1;1;;;;;;;;;;;;;
2021/03/01 02:11:03;;;;;;;1.6;1.2;;;;;;;;;;;;;
2021/03/01 02:13:28;;;;;;;1.3;1.1;;;;;;;;;;;;;
2021/03/01 02:15:59;;;;;;;1.5;1;;;;;;;;;;;;;
2021/03/01 02:18:26;;;;;;;2.9;1.5;;;;;;;;;;;;;
2021/03/01 02:20:52;;;;;;;2.1;1.4;;;;;;;;;;;;;
2021/03/01 02:23:16;;;;;;;1.5;1.4;;;;;;;;;;;;;
2021/03/01 02:25:42;;;;;;;1.8;1.1;;;;;;;;;;;;;
2021/03/01 02:28:08;;;;;;;1.5;1.1;;;;;;;;;;;;;
2021/03/01 02:30:37;;;;;;;1.4;1.2;;;;;;;;;;;;;
2021/03/01 02:33:05;;;;;;;2.8;1.2;;;;;;;;;;;;;
2021/03/01 02:35:29;;;;;;;2.7;1.3;;;;;;;;;;;;;
2021/03/01 02:37:56;;;;;;;2.1;1;;;;;;;;;;;;;
2021/03/01 02:40:21;;;;;;;2.5;1.5;;;;;;;;;;;;;
2021/03/01 02:42:46;;;;;;;0.8;0.7;;;;;;;;;;;;;
2021/03/01 02:45:11;;;;;;;0.8;0.7;;;;;;;;;;;;;
2021/03/01 02:47:36;;;;;;;1.9;1.1;;;;;;;;;;;;;
2021/03/01 02:50:02;;;;;;;1.2;1.1;;;;;;;;;;;;;
2021/03/01 02:52:27;;;;;;;4.5;1.4;;;;;;;;;;;;;
2021/03/01 02:54:52;;;;;;;4.1;1.2;;;;;;;;;;;;;
2021/03/01 02:57:17;;;;;;;0.6;0.6;;;;;;;;;;;;;
2021/03/01 02:59:43;;;;;;;1.9;1.1;;;;;;;;;;;;;
2021/03/01 03:02:08;;;;;;;0.8;0.8;;;;;;;;;;;;;
2021/03/01 03:04:33;;;;;;;2.2;1.1;;;;;;;;;;;;;
2021/03/01 03:06:58;;;;;;;1.2;0.9;;;;;;;;;;;;;
2021/03/01 03:09:26;;;;;;;1.6;1.2;;;;;;;;;;;;;
2021/03/01 03:11:51;;;;;;;3.5;1.8;;;;;;;;;;;;;
2021/03/01 03:14:17;;;;;;;1.1;0.9;;;;;;;;;;;;;
2021/03/01 03:16:42;;;;;;;0.6;0.6;;;;;;;;;;;;;
2021/03/01 03:19:08;;;;;;;1.2;1;;;;;;;;;;;;;
2021/03/01 03:21:33;;;;;;;0.7;0.7;;;;;;;;;;;;;
2021/03/01 03:24:00;;;;;;;1.4;1.1;;;;;;;;;;;;;
2021/03/01 03:26:25;;;;;;;1.1;0.9;;;;;;;;;;;;;
2021/03/01 03:28:51;;;;;;;0.5;0.5;;;;;;;;;;;;;
2021/03/01 03:31:16;;;;;;;2.4;1.2;;;;;;;;;;;;;
2021/03/01 03:33:42;;;;;;;1.2;1.1;;;;;;;;;;;;;
2021/03/01 03:36:07;;;;;;;1.6;1.1;;;;;;;;;;;;;
2021/03/01 03:38:34;;;;;;;1.4;0.8;;;;;;;;;;;;;
2021/03/01 03:40:59;;;;;;;2.2;1.3;;;;;;;;;;;;;
2021/03/01 03:43:24;;;;;;;1.5;0.9;;;;;;;;;;;;;
2021/03/01 03:45:49;;;;;;;2.3;1.2;;;;;;;;;;;;;
2021/03/01 03:48:15;;;;;;;1.1;1;;;;;;;;;;;;;
2021/03/01 03:50:40;;;;;;;3;1.2;;;;;;;;;;;;;
2021/03/01 03:53:07;;;;;;;1.5;1.3;;;;;;;;;;;;;
2021/03/01 03:55:32;;;;;;;1.3;1.1;;;;;;;;;;;;;
2021/03/01 03:57:58;;;;;;;0.8;0.8;;;;;;;;;;;;;
2021/03/01 04:02:31;;;;;;;0.9;0.8;;;;;;;-0.36;83.77441;949.4991;;;;
2021/03/01 04:04:56;;;;;;;2.4;1.2;;;;;;;-0.39;83.89258;949.4489;;;;
2021/03/01 04:07:26;;;;;;;1.8;1;;;;;;;-0.51;84.41113;949.5353;;;;
2021/03/01 04:09:51;;;;;;;1.4;1;;;;;;;-0.63;84.85645;949.5676;;;;
2021/03/01 04:12:22;;;;;;;5.6;1.2;;;;;;;-0.77;85.62793;949.4612;;;;
2021/03/01 04:14:53;;;;;;;1.9;1.3;;;;;;;-0.79;85.86914;949.4875;;;;
2021/03/01 04:17:27;;;;;;;1.1;0.9;;;;;;;-0.78;85.75977;949.4583;;;;
2021/03/01 04:19:58;;;;;;;1.3;1;;;;;;;-0.8;86.06738;949.481;;;;
2021/03/01 04:22:29;;;;;;;3.1;0.8;;;;;;;-0.75;86.30957;949.5095;;;;
2021/03/01 04:25:01;;;;;;;0.6;0.5;;;;;;;-0.95;87.38281;949.4453;;;;
2021/03/01 04:27:26;;;;;;;1;0.9;;;;;;;-1;87.73828;949.4814;;;;
2021/03/01 04:29:56;;;;;;;2.5;1.1;;;;;;;-1.05;87.74902;949.5047;;;;
2021/03/01 04:32:21;;;;;;;1.4;1;;;;;;;-1.05;87.69336;949.5307;;;;
2021/03/01 04:34:53;;;;;;;2.7;0.9;;;;;;;-1.05;87.83789;949.5135;;;;
2021/03/01 04:37:24;;;;;;;0.8;0.7;;;;;;;-0.93;86.94141;949.4849;;;;
2021/03/01 04:39:53;;;;;;;1.7;1;;;;;;;-0.91;86.23438;949.4734;;;;
2021/03/01 04:42:19;;;;;;;1.5;1.1;;;;;;;-0.89;86.14844;949.5765;;;;
2021/03/01 04:44:47;;;;;;;4.5;1.5;;;;;;;-0.92;86.28613;949.5765;;;;
2021/03/01 04:47:12;;;;;;;1;0.9;;;;;;;-0.78;85.94824;949.5799;;;;
2021/03/01 04:49:41;;;;;;;0.6;0.6;;;;;;;-0.65;85.29785;949.6213;;;;
2021/03/01 04:52:06;;;;;;;1.6;1.1;;;;;;;-0.53;84.4873;949.6412;;;;
2021/03/01 04:54:35;;;;;;;2.2;1.5;;;;;;;-0.39;83.60156;949.5464;;;;
2021/03/01 04:57:00;;;;;;;1.4;1.1;;;;;;;-0.36;82.77441;949.6315;;;;
2021/03/01 04:59:28;;;;;;;0.9;0.8;;;;;;;-0.31;82.25;949.6124;;;;
2021/03/01 05:01:53;;;;;;;1.1;0.9;;;;;;;-0.28;81.96582;949.6136;;;;
2021/03/01 05:04:22;;;;;;;3.2;1.6;;;;;;;-0.32;82.13574;949.5575;;;;
2021/03/01 05:06:47;;;;;;;3.1;1.2;;;;;;;-0.47;82.56348;949.5613;;;;
2021/03/01 05:09:17;;;;;;;1.2;0.8;;;;;;;-0.56;83.34668;949.5087;;;;
2021/03/01 05:11:47;;;;;;;1.3;1.1;;;;;;;-0.57;83.58789;949.4805;;;;
2021/03/01 05:14:12;;;;;;;1.9;1.6;;;;;;;-0.62;83.9668;949.3828;;;;
2021/03/01 05:16:38;;;;;;;1.2;1.1;;;;;;;-0.58;83.96484;949.4547;;;;
2021/03/01 05:19:08;;;;;;;1.3;1.1;;;;;;;-0.53;83.8623;949.4447;;;;
2021/03/01 05:21:33;;;;;;;2.5;1.6;;;;;;;-0.54;83.70508;949.4419;;;;
2021/03/01 05:24:02;;;;;;;2.2;1.6;;;;;;;-0.54;83.53809;949.3667;;;;
2021/03/01 05:26:29;;;;;;;3.7;1.3;;;;;;;-0.57;83.4209;949.4655;;;;
2021/03/01 05:28:55;;;;;;;2.6;1.8;;;;;;;-0.63;83.42188;949.4059;;;;
2021/03/01 05:31:40;;;;;;;1.3;1.2;;;;;;;-0.6;83.36035;949.52;;;;
2021/03/01 05:34:04;;;;;;;4.7;1.5;;;;;;;-0.57;82.89844;949.5587;;;;
2021/03/01 05:36:31;;;;;;;2.3;1.2;;;;;;;-0.61;83.01367;949.5497;;;;
2021/03/01 05:39:01;;;;;;;1.2;1.1;;;;;;;-0.54;82.79395;949.5226;;;;
2021/03/01 05:41:26;;;;;;;1.4;1.3;;;;;;;-0.47;82.23926;949.6053;;;;
2021/03/01 05:43:51;;;;;;;2.5;1.7;;;;;;;-0.48;81.79395;949.5753;;;;
2021/03/01 05:46:20;;;;;;;1.9;1.4;;;;;;;-0.54;82.25879;949.6531;;;;
2021/03/01 05:48:50;;;;;;;3;2.3;;;;;;;-0.54;82.53809;949.6534;;;;
2021/03/01 05:51:15;;;;;;;7.3;2.1;;;;;;;-0.51;82.59961;949.5706;;;;
2021/03/01 05:53:43;;;;;;;2.1;1.7;;;;;;;-0.44;82.25684;949.6992;;;;
2021/03/01 05:56:10;;;;;;;4.6;2.7;;;;;;;-0.53;81.96191;949.6506;;;;
2021/03/01 05:58:35;;;;;;;2.5;1.6;;;;;;;-0.43;81.53613;949.631;;;;
2021/03/01 06:01:00;;;;;;;8.7;2;;;;;;;-0.38;81.07715;949.6219;;;;
2021/03/01 06:03:25;;;;;;;3.8;1;;;;;;;-0.52;81.55176;949.6658;;;;
2021/03/01 06:05:50;;;;;;;1.3;1.2;;;;;;;-0.58;81.70801;949.6622;;;;
2021/03/01 06:08:18;;;;;;;3.4;1.8;;;;;;;-0.66;81.93652;949.6738;;;;
2021/03/01 06:10:46;;;;;;;2.6;1.2;;;;;;;-0.74;82.73145;949.599;;;;
2021/03/01 06:13:15;;;;;;;7.2;1.4;;;;;;;-0.75;82.94043;949.688;;;;
2021/03/01 06:15:53;;;;;;;2.2;1.5;;;;;;;-0.75;82.99609;949.658;;;;
2021/03/01 06:18:27;;;;;;;3.1;2;;;;;;;-0.78;83.04688;949.7404;;;;
2021/03/01 06:20:53;;;;;;;3.9;2;;;;;;;-0.72;82.92578;949.7484;;;;
2021/03/01 06:23:22;;;;;;;1.6;1.4;;;;;;;-0.7;82.88477;949.7445;;;;
2021/03/01 06:25:47;;;;;;;3.7;1.7;;;;;;;-0.72;83.05859;949.7531;;;;
2021/03/01 06:28:14;;;;;;;4.2;1.8;;;;;;;-0.87;83.35059;949.7796;;;;
2021/03/01 06:30:39;;;;;;;2;1.6;;;;;;;-0.76;83.81934;949.7997;;;;
2021/03/01 06:33:06;;;;;;;4;2.4;;;;;;;-0.19;83.15137;949.774;;;;
2021/03/01 06:35:31;;;;;;;2.9;2.3;;;;;;;0.94;79.18848;949.7008;;;;
2021/03/01 06:38:01;;;;;;;6.7;2.3;;;;;;;1.74;74.32617;949.6558;;;;
2021/03/01 06:40:26;;;;;;;3.9;2.2;;;;;;;2.66;70.6543;949.7137;;;;
2021/03/01 06:42:53;;;;;;;3.5;1.9;;;;;;;2.99;67.61328;949.71;;;;
2021/03/01 06:45:19;;;;;;;3.5;2;;;;;;;3.6;66.00195;949.712;;;;
2021/03/01 06:47:45;;;;;;;3.4;2;;;;;;;3.96;64.11328;949.7286;;;;
2021/03/01 06:50:15;;;;;;;1.3;1.2;;;;;;;3.92;63.9043;949.7706;;;;
2021/03/01 06:52:40;;;;;;;2.9;1.5;;;;;;;4.08;63.48926;949.7785;;;;
2021/03/01 06:55:07;;;;;;;9.9;1.7;;;;;;;3.95;63.24707;949.6741;;;;
2021/03/01 06:57:32;;;;;;;2.9;1.8;;;;;;;4;63.6123;949.7614;;;;
2021/03/01 06:59:58;;;;;;;5;1;;;;;;;4.11;62.97754;949.6889;;;;
2021/03/01 07:02:23;;;;;;;2.2;1.4;;;;;;;4.22;62.57617;949.7468;;;;
2021/03/01 07:04:50;;;;;;;1.3;1.1;;;;;;;3.93;63.92871;949.8164;;;;
2021/03/01 07:07:15;;;;;;;2.1;1.3;;;;;;;4.48;65.19238;949.825;;;;
2021/03/01 07:09:44;;;;;;;2.1;1;;;;;;;4.75;62.01367;949.7388;;;;
2021/03/01 07:12:08;;;;;;;4.8;1;;;;;;;5.39;59.97363;949.7729;;;;
2021/03/01 07:14:37;;;;;;;9.2;1.4;;;;;;;5.88;58.11133;949.6875;;;;
2021/03/01 07:17:05;;;;;;;2.7;1.3;;;;;;;5.53;57.99609;949.693;;;;
2021/03/01 07:19:33;;;;;;;0.4;0.4;;;;;;;4.79;60.27246;949.6523;;;;
2021/03/01 07:21:58;;;;;;;1.7;0.8;;;;;;;5;59.94141;949.655;;;;
2021/03/01 07:24:26;;;;;;;0.6;0.5;;;;;;;5.38;58.69824;949.6753;;;;
2021/03/01 07:26:51;;;;;;;1.2;0.6;;;;;;;5.19;59.80957;949.6959;;;;
2021/03/01 07:29:16;;;;;;;0.8;0.8;;;;;;;5.53;59.35059;949.7049;;;;
2021/03/01 07:31:41;;;;;;;2.4;1;;;;;;;5.63;59.01367;949.7341;;;;
2021/03/01 07:34:06;;;;;;;1.7;1.1;;;;;;;5.56;59.13965;949.7472;;;;
2021/03/01 07:36:34;;;;;;;3.2;1.6;;;;;;;5.8;58.93457;949.7063;;;;
2021/03/01 07:39:00;;;;;;;2.6;1.1;;;;;;;5.78;59.22559;949.658;;;;
2021/03/01 07:41:26;;;;;;;3;1.7;;;;;;;6.25;57.08789;949.7192;;;;
2021/03/01 07:43:50;;;;;;;0.8;0.8;;;;;;;6.15;57.50391;949.6024;;;;
2021/03/01 07:46:16;;;;;;;3.2;1.1;;;;;;;6.39;56.37109;949.7214;;;;
2021/03/01 07:48:41;;;;;;;4.7;1.3;;;;;;;6.65;55.90625;949.6996;;;;
2021/03/01 07:51:08;;;;;;;2.8;1.2;;;;;;;7.27;54.76465;949.6211;;;;
2021/03/01 07:53:33;;;;;;;0.5;0.5;;;;;;;7.22;54.57715;949.7132;;;;
2021/03/01 07:56:01;;;;;;;2.1;1.3;;;;;;;7.86;53.63672;949.6925;;;;
2021/03/01 07:58:27;;;;;;;0.8;0.6;;;;;;;8.26;51.31445;949.6499;;;;
2021/03/01 08:00:52;;;;;;;3.3;1.2;;;;;;;8.06;51.1875;949.7238;;;;
2021/03/01 08:03:17;;;;;;;3.3;1.3;;;;;;;8.56;49.75684;949.7586;;;;
2021/03/01 08:05:45;;;;;;;1.1;0.8;;;;;;;8.14;50.44727;949.7094;;;;
2021/03/01 08:08:12;;;;;;;0.9;0.7;;;;;;;8.53;49.70898;949.7172;;;;
2021/03/01 08:10:35;;;;;;;0.9;0.8;;;;;;;9.37;47.78027;949.5792;;;;
2021/03/01 08:13:03;;;;;;;1.5;1;;;;;;;9.99;45.6582;949.6182;;;;
2021/03/01 08:15:42;;;;;;;0.5;0.4;;;;;;;10.99;42.91797;949.6303;;;;
2021/03/01 08:18:08;;;;;;;1.7;0.8;;;;;;;11.67;41.05078;949.5062;;;;
2021/03/01 08:20:39;;;;;;;1;0.5;;;;;;;11.64;40.64746;949.6086;;;;
2021/03/01 08:23:07;;;;;;;1.5;0.6;;;;;;;11.68;40.91406;949.6096;;;;
2021/03/01 08:25:33;;;;;;;0.3;0.2;;;;;;;12.78;37.88477;949.5746;;;;
2021/03/01 08:28:02;;;;;;;1.5;0.7;;;;;;;14.9;33.07617;949.4902;;;;
2021/03/01 08:30:35;;;;;;;2.6;1;;;;;;;15.57;32.20313;949.4451;;;;
2021/03/01 08:33:00;;;;;;;0.4;0.3;;;;;;;15.7;33.17188;949.3665;;;;
2021/03/01 08:35:25;;;;;;;0.3;0.3;;;;;;;14.89;35.51953;949.3577;;;;
2021/03/01 08:37:50;;;;;;;0.8;0.5;;;;;;;16.82;32.44531;949.3802;;;;
2021/03/01 08:40:16;;;;;;;0.4;0.4;;;;;;;17.6;29.41602;949.3003;;;;
2021/03/01 08:42:41;;;;;;;0.9;0.3;;;;;;;18.74;27.80469;949.2704;;;;
2021/03/01 08:45:07;;;;;;;1.7;0.8;;;;;;;16.73;29.41602;949.3;;;;
2021/03/01 08:47:32;;;;;;;2.4;0.8;;;;;;;15.8;31.24902;949.2724;;;;
2021/03/01 08:49:58;;;;;;;1.6;0.6;;;;;;;16.38;30.2373;949.2687;;;;
2021/03/01 08:52:23;;;;;;;0.7;0.5;;;;;;;16.41;29.58008;949.272;;;;
2021/03/01 08:54:48;;;;;;;0.7;0.5;;;;;;;17.28;28.02637;949.1717;;;;
2021/03/01 08:57:13;;;;;;;1.3;0.7;;;;;;;18.37;28.89844;949.2136;;;;
2021/03/01 08:59:40;;;;;;;1;0.5;;;;;;;19.06;27.2793;949.2217;;;;
2021/03/01 09:02:06;;;;;;;2.2;0.9;;;;;;;18.57;26.39941;949.197;;;;
2021/03/01 09:04:31;;;;;;;3.3;0.8;;;;;;;18.33;26.57031;949.1459;;;;
2021/03/01 09:06:56;;;;;;;0.9;0.7;;;;;;;17.78;26.44531;949.1035;;;;
2021/03/01 09:09:21;;;;;;;1;0.3;;;;;;;18.36;27.89746;949.0895;;;;
2021/03/01 09:11:47;;;;;;;1.2;0.8;;;;;;;19.14;26.43359;948.9702;;;;
2021/03/01 09:14:12;;;;;;;0.6;0.6;;;;;;;18.11;26.66211;949.0914;;;;
2021/03/01 09:16:37;;;;;;;1.1;0.3;;;;;;;18.85;25.42676;949.0748;;;;
2021/03/01 09:19:04;;;;;;;1.5;0.8;;;;;;;18.7;30.89746;949.0873;;;;
2021/03/01 09:21:29;;;;;;;1.3;1;;;;;;;17.47;32.98047;949.1666;;;;
2021/03/01 09:23:55;;;;;;;1.3;0.9;;;;;;;16.69;33.69824;949.2484;;;;
2021/03/01 09:26:21;;;;;;;1.4;0.9;;;;;;;15.23;35.83594;949.222;;;;
2021/03/01 09:28:47;;;;;;;1.7;1.2;;;;;;;14.39;37.78418;949.3314;;;;
2021/03/01 09:31:12;;;;;;;1.1;1;;;;;;;13.73;37.70313;949.275;;;;
2021/03/01 09:33:37;;;;;;;1;0.9;;;;;;;14.06;37.53613;949.2868;;;;
2021/03/01 09:36:03;;;;;;;0.8;0.6;;;;;;;13.55;38.36621;949.3456;;;;
2021/03/01 09:38:28;;;;;;;2.1;1.1;;;;;;;13.89;38.28125;949.2944;;;;
2021/03/01 09:40:54;;;;;;;0.8;0.8;;;;;;;13.81;37.95117;949.2673;;;;
2021/03/01 09:43:22;;;;;;;0.9;0.5;;;;;;;14.92;36.05371;949.2489;;;;
2021/03/01 09:45:46;;;;;;;0.6;0.5;;;;;;;15.16;35.96875;949.1985;;;;
2021/03/01 09:48:12;;;;;;;1.2;0.8;;;;;;;14.68;36.0791;949.2043;;;;
2021/03/01 09:50:37;;;;;;;0.8;0.7;;;;;;;15.07;35.32715;949.221;;;;
2021/03/01 09:53:04;;;;;;;2.1;0.8;;;;;;;15.04;35.10547;949.2095;;;;
2021/03/01 09:55:29;;;;;;;1;0.7;;;;;;;13.79;37.35156;949.2039;;;;
2021/03/01 09:57:55;;;;;;;0.7;0.7;;;;;;;13.3;39.24023;949.3005;;;;
2021/03/01 10:00:20;;;;;;;1.4;1.1;;;;;;;13.3;39.66602;949.3438;;;;
2021/03/01 10:02:47;;;;;;;4;2;;;;;;;13.64;38.53516;949.3641;;;;
2021/03/01 10:05:12;;;;;;;1.4;0.8;;;;;;;13.59;39.59961;949.3127;;;;
2021/03/01 10:07:37;;;;;;;0.6;0.5;;;;;;;13.94;38.81445;949.1998;;;;
2021/03/01 10:10:05;;;;;;;2.7;1.1;;;;;;;14.89;37.22754;949.32;;;;
2021/03/01 10:12:30;;;;;;;0.8;0.7;;;;;;;14.43;37.52246;949.3109;;;;
2021/03/01 10:14:55;;;;;;;5.8;1;;;;;;;13.15;40.15625;949.3964;;;;
2021/03/01 10:17:24;;;;;;;2.9;1.2;;;;;;;13.16;40.42188;949.3694;;;;
2021/03/01 10:19:47;;;;;;;1.2;0.8;;;;;;;13.43;41.36719;949.3438;;;;
2021/03/01 10:22:12;;;;;;;0.6;0.6;;;;;;;13.02;42.31641;949.347;;;;
2021/03/01 10:24:38;;;;;;;1;0.9;;;;;;;12.83;42.52637;949.3769;;;;
2021/03/01 10:27:04;;;;;;;1.1;0.4;;;;;;;12.44;44.19824;949.3345;;;;
2021/03/01 10:29:30;;;;;;;2.7;1;;;;;;;12.35;44.41699;949.3419;;;;
2021/03/01 10:31:55;;;;;;;0.8;0.7;;;;;;;12.49;43.73242;949.3035;;;;
2021/03/01 10:34:21;;;;;;;1.3;0.7;;;;;;;12.69;43.38477;949.3068;;;;
2021/03/01 10:36:46;;;;;;;0.7;0.6;;;;;;;12.54;43.38184;949.3979;;;;
2021/03/01 10:39:14;;;;;;;0.8;0.8;;;;;;;12.44;43.56738;949.4023;;;;
2021/03/01 10:41:39;;;;;;;1.4;0.9;;;;;;;12.88;42.83008;949.3834;;;;
2021/03/01 10:44:04;;;;;;;2.2;0.9;;;;;;;13.25;42.36133;949.3173;;;;
2021/03/01 10:46:30;;;;;;;1.2;0.9;;;;;;;13.65;41.46875;949.3611;;;;
2021/03/01 10:48:55;;;;;;;0.6;0.5;;;;;;;13.11;43.16211;949.3853;;;;
2021/03/01 10:51:20;;;;;;;1.8;0.9;;;;;;;13.51;41.16797;949.3434;;;;
2021/03/01 10:53:45;;;;;;;1.9;1;;;;;;;13.83;41.08301;949.3585;;;;
2021/03/01 10:56:11;;;;;;;1.6;0.9;;;;;;;13.54;40.8252;949.3038;;;;
2021/03/01 10:58:36;;;;;;;1.4;0.8;;;;;;;13.82;40.78223;949.3102;;;;
2021/03/01 11:01:04;;;;;;;15.9;0.8;;;;;;;14.75;37.61816;949.2668;;;;
2021/03/01 11:03:29;;;;;;;1.3;0.8;;;;;;;14.97;37.70605;949.2012;;;;
2021/03/01 11:05:55;;;;;;;1;0.9;;;;;;;14.49;38.41406;949.1794;;;;
2021/03/01 11:08:21;;;;;;;1.6;0.7;;;;;;;14.82;37.45215;949.1661;;;;
2021/03/01 11:10:48;;;;;;;1.2;0.9;;;;;;;14.71;37.74219;949.175;;;;
2021/03/01 11:13:13;;;;;;;0.9;0.8;;;;;;;14.8;37.49609;949.1125;;;;
2021/03/01 11:15:40;;;;;;;1;0.9;;;;;;;15.36;35.9043;949.0778;;;;
2021/03/01 11:18:05;;;;;;;1.4;0.9;;;;;;;16.83;33.53418;949.0786;;;;
2021/03/01 11:20:30;;;;;;;1.2;0.5;;;;;;;17.57;32.59375;949.0039;;;;
2021/03/01 11:22:57;;;;;;;0.6;0.6;;;;;;;18.2;31.44336;948.9396;;;;
2021/03/01 11:25:22;;;;;;;1.6;0.8;;;;;;;18.19;31.62891;948.9219;;;;
2021/03/01 11:27:49;;;;;;;0.9;0.6;;;;;;;18.21;30.93262;948.8638;;;;
2021/03/01 11:30:15;;;;;;;0.9;0.6;;;;;;;19.14;29.76367;948.8175;;;;
2021/03/01 11:32:42;;;;;;;0.9;0.7;;;;;;;20.07;28.50781;948.8487;;;;
2021/03/01 11:35:07;;;;;;;1.6;0.8;;;;;;;20.93;27.08984;948.7459;;;;
2021/03/01 11:37:33;;;;;;;0.6;0.5;;;;;;;21.1;26.78516;948.6758;;;;
2021/03/01 11:39:58;;;;;;;4.9;0.5;;;;;;;21.51;26.24707;948.6583;;;;
2021/03/01 11:42:24;;;;;;;5.1;0.9;;;;;;;20.84;26.57031;948.6435;;;;
2021/03/01 11:44:49;;;;;;;2.7;0.6;;;;;;;21.26;25.8584;948.6052;;;;
2021/03/01 11:47:17;;;;;;;1.1;0.7;;;;;;;20.91;26.12988;948.5803;;;;
2021/03/01 11:49:43;;;;;;;1.3;0.7;;;;;;;21.47;26.1748;948.556;;;;
2021/03/01 11:52:10;;;;;;;3.3;0.9;;;;;;;21.83;25.23535;948.4637;;;;
2021/03/01 11:54:35;;;;;;;3.6;0.6;;;;;;;22.25;24.22754;948.4772;;;;
2021/03/01 11:57:02;;;;;;;1;0.8;;;;;;;22.78;23.41113;948.4011;;;;
2021/03/01 11:59:27;;;;;;;4;0.3;;;;;;;23.53;22.82715;948.3844;;;;
2021/03/01 12:01:53;;;;;;;1.7;0.7;;;;;;;23.16;24.15918;948.3571;;;;
2021/03/01 12:04:18;;;;;;;0.9;0.7;;;;;;;24.39;22.42383;948.3645;;;;
2021/03/01 12:06:47;;;;;;;1.3;0.7;;;;;;;24.45;22.44922;948.2932;;;;
2021/03/01 12:09:11;;;;;;;0.8;0.6;;;;;;;24.95;22.0625;948.2831;;;;
2021/03/01 12:11:37;;;;;;;0.8;0.8;;;;;;;24;23.40527;948.2366;;;;
2021/03/01 12:14:03;;;;;;;1.6;0.6;;;;;;;23.85;23.58496;948.1901;;;;
2021/03/01 12:16:31;;;;;;;5.2;0.8;;;;;;;22.56;26.2041;948.1863;;;;
2021/03/01 12:18:56;;;;;;;1;0.7;;;;;;;23.5;25.04785;948.1542;;;;
2021/03/01 12:21:25;;;;;;;1.4;0.9;;;;;;;23.57;24.64063;948.1415;;;;
2021/03/01 12:23:50;;;;;;;1.1;0.8;;;;;;;24.73;23.57227;948.1434;;;;
2021/03/01 12:26:16;;;;;;;1.4;1;;;;;;;23.51;24.41406;948.0736;;;;
2021/03/01 12:28:45;;;;;;;1.6;1;;;;;;;23.03;25.79688;948.0812;;;;
2021/03/01 12:31:14;;;;;;;1;0.8;;;;;;;24.63;23.54297;948.1113;;;;
2021/03/01 12:33:39;;;;;;;0.8;0.7;;;;;;;25.14;22.7793;948.0985;;;;
2021/03/01 12:36:05;;;;;;;6.2;1;;;;;;;25.27;22.62109;948.0815;;;;
2021/03/01 12:38:30;;;;;;;1.6;0.7;;;;;;;25.35;22.47168;948.0765;;;;
2021/03/01 12:40:58;;;;;;;1.3;0.8;;;;;;;24.8;23.00977;948.068;;;;
2021/03/01 12:43:23;;;;;;;1.7;0.8;;;;;;;24.91;23.23926;948.0236;;;;
2021/03/01 12:45:52;;;;;;;1;0.7;;;;;;;24.24;24.14746;947.949;;;;
2021/03/01 12:48:17;;;;;;;0.9;0.8;;;;;;;23.64;24.64453;947.9756;;;;
2021/03/01 12:50:44;;;;;;;0.9;0.7;;;;;;;23.95;24.7207;947.9775;;;;
2021/03/01 12:53:10;;;;;;;1.1;0.7;;;;;;;24.1;24.43457;948.0048;;;;
2021/03/01 12:55:35;;;;;;;2.3;1;;;;;;;24.78;23.52734;947.9629;;;;
2021/03/01 12:58:02;;;;;;;1.2;0.9;;;;;;;22.55;26.81348;947.873;;;;
2021/03/01 13:00:27;;;;;;;1.9;0.7;;;;;;;21.48;28.24707;947.9034;;;;
2021/03/01 13:02:54;;;;;;;1;0.8;;;;;;;22;27.30762;947.9058;;;;
2021/03/01 13:05:19;;;;;;;3;1.4;;;;;;;21.98;27.43555;947.9419;;;;
2021/03/01 13:07:46;;;;;;;1.8;1;;;;;;;22.83;26.30273;947.8207;;;;
2021/03/01 13:10:11;;;;;;;1.1;0.8;;;;;;;23.46;25.73926;947.8513;;;;
2021/03/01 13:12:42;;;;;;;1.5;1.2;;;;;;;22.92;25.86133;947.7902;;;;
2021/03/01 13:15:05;;;;;;;2.3;1.2;;;;;;;23.32;25.80176;947.8876;;;;
2021/03/01 13:17:30;;;;;;;0.9;0.6;;;;;;;23.22;25.29102;947.7693;;;;
2021/03/01 13:19:56;;;;;;;1.2;0.8;;;;;;;22.9;25.80176;947.7922;;;;
2021/03/01 13:22:24;;;;;;;1.2;0.8;;;;;;;22.02;26.71191;947.8348;;;;
2021/03/01 13:24:49;;;;;;;0.9;0.8;;;;;;;21.66;26.87793;947.817;;;;
2021/03/01 13:27:18;;;;;;;1.9;0.6;;;;;;;22.54;26.14453;947.8066;;;;
2021/03/01 13:29:43;;;;;;;0.7;0.4;;;;;;;22.13;26.0498;947.8105;;;;
2021/03/01 13:32:10;;;;;;;0.9;0.6;;;;;;;21.48;27.32227;947.7145;;;;
2021/03/01 13:34:35;;;;;;;2.8;1;;;;;;;21.55;26.95215;947.7587;;;;
2021/03/01 13:37:01;;;;;;;0.8;0.7;;;;;;;22.41;26.01953;947.7711;;;;
2021/03/01 13:39:27;;;;;;;1.4;0.7;;;;;;;22.93;25.40332;947.7097;;;;
2021/03/01 13:41:57;;;;;;;0.8;0.7;;;;;;;22.91;25.07422;947.7321;;;;
2021/03/01 13:44:24;;;;;;;2.5;1;;;;;;;23.17;24.85352;947.6635;;;;
2021/03/01 13:46:49;;;;;;;2.3;1.1;;;;;;;22.49;25.38965;947.6918;;;;
2021/03/01 13:49:16;;;;;;;0.7;0.7;;;;;;;21.19;27.08301;947.7324;;;;
2021/03/01 13:51:42;;;;;;;1.1;0.9;;;;;;;22.21;25.1748;947.71;;;;
2021/03/01 13:54:11;;;;;;;0.9;0.6;;;;;;;23.04;24.77539;947.7219;;;;
2021/03/01 13:56:36;;;;;;;1;0.7;;;;;;;23.87;23.92773;947.7463;;;;
2021/03/01 13:59:03;;;;;;;2;0.9;;;;;;;24.41;23.00195;947.7263;;;;
2021/03/01 14:01:28;;;;;;;1.1;0.6;;;;;;;23.48;24.2832;947.7433;;;;
2021/03/01 14:03:56;;;;;;;1.4;0.8;;;;;;;23.61;23.98438;947.7216;;;;
2021/03/01 14:06:21;;;;;;;1.2;0.8;;;;;;;23.08;24.31934;947.7349;;;;
2021/03/01 14:08:46;;;;;;;1.4;0.9;;;;;;;23.68;24.01172;947.6755;;;;
2021/03/01 14:11:13;;;;;;;4.9;0.9;;;;;;;23.79;23.55859;947.6546;;;;
2021/03/01 14:13:38;;;;;;;1.5;0.8;;;;;;;23.89;23.89355;947.6783;;;;
2021/03/01 14:16:07;;;;;;;0.8;0.6;;;;;;;24.91;22.99219;947.6624;;;;
2021/03/01 14:18:32;;;;;;;1.9;0.9;;;;;;;25.51;22.08984;947.6763;;;;
2021/03/01 14:20:59;;;;;;;1.4;0.6;;;;;;;24.79;22.86816;947.6122;;;;
2021/03/01 14:23:24;;;;;;;1.3;0.9;;;;;;;24.71;22.55762;947.6591;;;;
2021/03/01 14:25:57;;;;;;;1.7;0.9;;;;;;;23.94;23.27148;947.572;;;;
2021/03/01 14:28:25;;;;;;;1;0.9;;;;;;;23.1;24.48535;947.5897;;;;
2021/03/01 14:30:50;;;;;;;0.6;0.5;;;;;;;22.22;26.46582;947.6238;;;;
2021/03/01 14:33:22;;;;;;;0.9;0.7;;;;;;;21.62;27.43652;947.6116;;;;
2021/03/01 14:35:46;;;;;;;1.4;0.7;;;;;;;21.64;26.92285;947.6049;;;;
2021/03/01 14:38:14;;;;;;;1.5;0.8;;;;;;;22.05;26.30273;947.6595;;;;
2021/03/01 14:40:39;;;;;;;1.4;1;;;;;;;22.82;25.15039;947.5948;;;;
2021/03/01 14:43:05;;;;;;;3.3;1.1;;;;;;;21.49;26.91309;947.5912;;;;
2021/03/01 14:45:30;;;;;;;0.9;0.8;;;;;;;21.14;27.54688;947.6328;;;;
2021/03/01 14:47:57;;;;;;;1.1;0.7;;;;;;;20.98;27.83008;947.6859;;;;
2021/03/01 14:50:22;;;;;;;0.8;0.8;;;;;;;21.17;27.68945;947.6453;;;;
2021/03/01 14:52:48;;;;;;;1.7;1.1;;;;;;;19.7;30.12793;947.6861;;;;
2021/03/01 14:55:13;;;;;;;1.5;1;;;;;;;18.88;30.94434;947.6719;;;;
2021/03/01 14:57:41;;;;;;;1.6;1.2;;;;;;;20.01;29.92773;947.7152;;;;
2021/03/01 15:00:06;;;;;;;1.6;0.8;;;;;;;20.43;28.78809;947.7039;;;;
2021/03/01 15:02:33;;;;;;;1.4;1.2;;;;;;;19.96;29.20117;947.7142;;;;
2021/03/01 15:04:58;;;;;;;1.1;0.8;;;;;;;19.87;29.47559;947.7096;;;;
2021/03/01 15:07:25;;;;;;;2.6;1.1;;;;;;;20.32;29.09668;947.7525;;;;
2021/03/01 15:09:49;;;;;;;1.9;1;;;;;;;20.56;28.73828;947.6617;;;;
2021/03/01 15:12:17;;;;;;;2;1.1;;;;;;;20.15;29.43555;947.7106;;;;
2021/03/01 15:14:42;;;;;;;1.3;1;;;;;;;20.23;29.65039;947.7625;;;;
2021/03/01 15:17:10;;;;;;;1.3;0.9;;;;;;;20.49;29.16602;947.7864;;;;
2021/03/01 15:19:35;;;;;;;2.1;0.8;;;;;;;19.48;31.23242;947.7961;;;;
2021/03/01 15:22:02;;;;;;;3.6;0.9;;;;;;;19.4;30.99316;947.7868;;;;
2021/03/01 15:24:27;;;;;;;1.9;1.2;;;;;;;18.75;31.80762;947.7678;;;;
2021/03/01 15:26:53;;;;;;;1.5;1;;;;;;;19.41;30.98242;947.8061;;;;
2021/03/01 15:29:18;;;;;;;1.4;1;;;;;;;19.48;30.74219;947.7994;;;;
2021/03/01 15:31:44;;;;;;;4;1.1;;;;;;;19.29;30.86914;947.8775;;;;
2021/03/01 15:34:09;;;;;;;1.6;1;;;;;;;17.98;32.90234;947.818;;;;
2021/03/01 15:36:38;;;;;;;1.8;1;;;;;;;17.38;34.44629;947.9053;;;;
2021/03/01 15:39:03;;;;;;;1.4;1.1;;;;;;;17.72;33.50977;947.8176;;;;